sim
Sign-in with your pilot id or email,
or register
Callsign
Passwort

Schedule Details

Flight Number: DLH1607
Departure: Rzeszow Jasionka Airport (EPRZ) at 16:50
Arrival: Munich Airport (EDDM) at 18:20
Route: Lufthansa Passenger Schedule. Enter filed route here before submitting Pirep.

Weather Information
Getting current METAR information for EPRZ 231530Z 17008KT 130V190 CAVOK 22/11 Q1010
Getting current METAR information for EDDM 231520Z 25007KT 220V280 9999 FEW045 20/14 Q1009 NOSIG

Schedule Frequency

Route Map